Time;durP1;ratioP1;P1;durP2;ratioP2;P2;SDS_P1;SDS_P2;PMS_P1;PMS_P2;Temp;Humidity;BMP_temperature;BMP_pressure;BME280_temperature;BME280_humidity;BME280_pressure;Samples;Min_cycle;Max_cycle;Signal;HPM_P1;HPM_P2
2023/08/23 00:02:00;;;;;;;8.80;7.30;;;20.60;99.90;;;;;;5035013;28;20470;-48
2023/08/23 00:04:27;;;;;;;10.63;8.40;;;20.60;99.90;;;;;;5035199;28;20437;-47
2023/08/23 00:06:54;;;;;;;8.87;7.70;;;20.60;99.90;;;;;;5046022;28;20526;-48
2023/08/23 00:09:21;;;;;;;11.83;8.13;;;20.60;99.90;;;;;;5054387;28;20433;-48
2023/08/23 00:11:48;;;;;;;9.33;8.20;;;20.60;99.90;;;;;;5053897;28;20441;-48
2023/08/23 00:14:14;;;;;;;8.57;7.60;;;20.60;99.90;;;;;;5054410;28;20745;-48
2023/08/23 00:16:41;;;;;;;10.57;8.00;;;20.50;99.90;;;;;;5053756;28;21048;-48
2023/08/23 00:19:07;;;;;;;9.90;8.43;;;20.50;99.90;;;;;;5054217;28;20445;-47
2023/08/23 00:21:34;;;;;;;13.73;8.10;;;20.50;99.90;;;;;;5054208;28;20839;-48
2023/08/23 00:24:02;;;;;;;8.90;6.63;;;20.80;99.90;;;;;;5054897;28;20451;-48
2023/08/23 00:26:29;;;;;;;9.67;8.67;;;20.60;99.90;;;;;;5054999;28;20972;-47
2023/08/23 00:28:56;;;;;;;9.60;7.70;;;20.50;99.90;;;;;;5054323;28;20876;-47
2023/08/23 00:31:23;;;;;;;8.57;7.57;;;20.50;99.90;;;;;;5054023;28;20797;-47
2023/08/23 00:33:50;;;;;;;10.07;7.80;;;20.50;99.90;;;;;;5054100;28;20800;-47
2023/08/23 00:36:16;;;;;;;14.30;7.47;;;20.50;99.90;;;;;;5052690;28;20452;-46
2023/08/23 00:38:43;;;;;;;10.43;7.77;;;20.50;99.90;;;;;;5053563;28;20802;-46
2023/08/23 00:41:11;;;;;;;10.20;7.13;;;20.70;99.90;;;;;;5052672;28;20441;-46
2023/08/23 00:43:37;;;;;;;8.90;8.10;;;20.50;99.90;;;;;;5052518;28;20459;-46
2023/08/23 00:46:04;;;;;;;9.53;7.43;;;20.40;99.90;;;;;;5053690;28;20431;-47
2023/08/23 00:48:31;;;;;;;8.33;7.40;;;20.40;99.90;;;;;;5053599;28;20408;-47
2023/08/23 00:50:57;;;;;;;9.20;7.60;;;20.30;99.90;;;;;;5052475;28;20441;-47
2023/08/23 00:53:24;;;;;;;9.97;7.77;;;20.30;99.90;;;;;;5052873;28;20449;-47
2023/08/23 00:55:51;;;;;;;8.90;7.67;;;20.30;99.90;;;;;;5054413;28;20446;-48
2023/08/23 00:58:20;;;;;;;9.87;7.20;;;20.30;99.90;;;;;;5052829;28;20461;-47
2023/08/23 01:00:48;;;;;;;12.33;7.20;;;20.20;99.90;;;;;;5052654;28;20488;-47
2023/08/23 01:03:14;;;;;;;10.03;6.83;;;20.20;99.90;;;;;;5054255;28;20508;-48
2023/08/23 01:05:50;;;;;;;10.43;7.40;;;20.20;99.90;;;;;;5050708;28;20441;-47
2023/08/23 01:08:26;;;;;;;13.23;7.80;;;20.30;99.90;;;;;;5031908;28;20466;-47
2023/08/23 01:10:58;;;;;;;16.13;7.10;;;20.00;99.90;;;;;;5033776;28;20817;-48
2023/08/23 01:13:33;;;;;;;9.33;7.00;;;20.20;99.90;;;;;;5034210;28;20433;-47
2023/08/23 01:16:01;;;;;;;10.33;8.27;;;20.30;99.90;;;;;;5034605;28;20429;-47
2023/08/23 01:18:29;;;;;;;10.27;7.87;;;20.90;99.90;;;;;;5033452;28;20453;-49
2023/08/23 01:20:58;;;;;;;15.63;7.80;;;20.10;99.90;;;;;;5033514;28;20446;-47
2023/08/23 01:23:28;;;;;;;7.27;6.57;;;20.10;99.90;;;;;;5032911;28;21022;-47
2023/08/23 01:25:55;;;;;;;7.40;6.30;;;20.10;99.90;;;;;;5033318;28;20497;-48
2023/08/23 01:28:23;;;;;;;9.37;7.30;;;20.00;99.90;;;;;;5033048;28;20469;-48
2023/08/23 01:30:51;;;;;;;9.63;7.20;;;20.30;99.90;;;;;;5033858;28;20403;-48
2023/08/23 01:33:25;;;;;;;8.37;7.30;;;20.10;99.90;;;;;;5031976;28;20532;-48
2023/08/23 01:35:59;;;;;;;9.90;7.33;;;20.00;99.90;;;;;;5031620;28;20983;-48
2023/08/23 01:38:29;;;;;;;8.00;7.20;;;20.10;99.90;;;;;;5032729;28;20426;-48
2023/08/23 01:40:57;;;;;;;15.80;7.60;;;20.10;99.90;;;;;;5031843;28;20446;-47
2023/08/23 01:43:23;;;;;;;12.47;7.30;;;20.10;99.90;;;;;;5031532;28;20486;-48
2023/08/23 01:45:50;;;;;;;8.23;7.13;;;20.10;99.90;;;;;;5031673;28;20430;-47
2023/08/23 01:48:17;;;;;;;10.70;7.40;;;20.10;99.90;;;;;;5031070;28;20484;-48
2023/08/23 01:50:43;;;;;;;7.60;6.47;;;20.00;99.90;;;;;;5031565;28;20472;-49
2023/08/23 01:53:10;;;;;;;6.87;6.17;;;20.00;99.90;;;;;;5031323;28;20437;-48
2023/08/23 01:55:38;;;;;;;9.63;7.70;;;20.00;99.90;;;;;;5031443;28;20444;-48
2023/08/23 01:58:07;;;;;;;8.27;6.90;;;20.00;99.90;;;;;;5030934;28;20565;-48
2023/08/23 02:00:33;;;;;;;7.77;5.70;;;19.70;99.90;;;;;;5031115;28;20445;-47
2023/08/23 02:03:01;;;;;;;7.53;6.33;;;20.00;99.90;;;;;;5032290;28;20469;-48
2023/08/23 02:05:30;;;;;;;12.93;6.97;;;20.00;99.90;;;;;;5031398;28;20859;-48
2023/08/23 02:07:56;;;;;;;10.13;7.50;;;19.80;99.90;;;;;;5051878;28;20456;-48
2023/08/23 02:10:23;;;;;;;7.80;6.30;;;20.00;99.90;;;;;;5052171;28;20425;-47
2023/08/23 02:12:51;;;;;;;7.87;5.97;;;19.90;99.90;;;;;;5052206;28;20407;-48
2023/08/23 02:15:17;;;;;;;8.30;7.00;;;19.90;99.90;;;;;;5051052;28;20422;-48
2023/08/23 02:17:44;;;;;;;10.00;7.30;;;19.90;99.90;;;;;;5051518;28;20467;-48
2023/08/23 02:20:11;;;;;;;10.80;7.50;;;19.90;99.90;;;;;;5052162;28;20490;-48
2023/08/23 02:22:38;;;;;;;12.57;8.23;;;19.80;99.90;;;;;;5050692;28;20893;-48
2023/08/23 02:25:05;;;;;;;9.03;7.80;;;19.80;99.90;;;;;;5052004;28;20442;-48
2023/08/23 02:27:32;;;;;;;8.43;6.97;;;19.80;99.90;;;;;;5050604;28;20972;-48
2023/08/23 02:30:00;;;;;;;7.83;7.10;;;19.80;99.90;;;;;;5052099;28;20469;-53
2023/08/23 02:32:27;;;;;;;6.53;6.00;;;19.70;99.90;;;;;;5050687;28;21009;-48
2023/08/23 02:34:54;;;;;;;9.03;7.97;;;19.70;99.90;;;;;;5051948;28;20436;-48
2023/08/23 02:37:20;;;;;;;9.63;6.57;;;19.30;99.90;;;;;;5050479;28;20463;-47
2023/08/23 02:39:47;;;;;;;7.17;6.30;;;19.70;99.90;;;;;;5051924;28;20439;-47
2023/08/23 02:42:14;;;;;;;10.37;6.83;;;19.90;99.90;;;;;;5050486;28;20471;-48
2023/08/23 02:44:40;;;;;;;11.33;7.77;;;19.70;99.90;;;;;;5051876;28;20414;-48
2023/08/23 02:47:08;;;;;;;9.67;6.97;;;19.60;99.90;;;;;;5051322;28;20877;-48
2023/08/23 02:49:35;;;;;;;9.10;7.47;;;19.60;99.90;;;;;;5052011;28;20424;-47
2023/08/23 02:52:01;;;;;;;9.50;7.30;;;19.90;99.90;;;;;;5051827;28;20432;-48
2023/08/23 02:54:28;;;;;;;7.73;6.83;;;19.50;99.90;;;;;;5050597;28;20418;-47
2023/08/23 02:56:56;;;;;;;11.40;7.70;;;19.50;99.90;;;;;;5051413;28;21036;-47
2023/08/23 02:59:23;;;;;;;15.13;8.93;;;19.50;99.90;;;;;;5050477;28;20448;-47
2023/08/23 03:01:51;;;;;;;11.60;8.00;;;19.50;99.90;;;;;;5050482;28;20881;-46
2023/08/23 03:04:19;;;;;;;8.77;7.70;;;19.40;99.90;;;;;;5051701;28;20485;-48
2023/08/23 03:06:45;;;;;;;9.63;7.40;;;19.50;99.90;;;;;;5040479;28;20468;-48
2023/08/23 03:09:12;;;;;;;13.63;9.03;;;19.50;99.90;;;;;;5031842;28;20433;-47
2023/08/23 03:11:39;;;;;;;9.57;8.03;;;19.40;99.90;;;;;;5031908;28;20411;-47
2023/08/23 03:14:06;;;;;;;14.87;8.20;;;19.20;99.90;;;;;;5030500;28;20855;-48
2023/08/23 03:16:33;;;;;;;8.90;8.00;;;;;;;;;;5054997;23;20904;-44
2023/08/23 03:19:00;;;;;;;12.83;7.83;;;19.40;99.90;;;;;;5009910;28;20994;-43
2023/08/23 03:21:30;;;;;;;9.43;7.17;;;19.10;99.90;;;;;;5044378;28;20944;-42
2023/08/23 03:23:57;;;;;;;9.40;7.80;;;19.30;99.90;;;;;;5045089;28;20559;-43
2023/08/23 03:26:23;;;;;;;10.40;7.80;;;19.40;99.90;;;;;;5013509;28;20935;-43
2023/08/23 03:28:51;;;;;;;13.53;8.50;;;19.30;99.90;;;;;;5011271;28;20468;-43
2023/08/23 03:31:17;;;;;;;10.67;8.13;;;19.30;99.90;;;;;;5010895;28;20422;-43
2023/08/23 03:33:45;;;;;;;12.43;9.47;;;19.30;99.90;;;;;;5011098;28;20524;-43
2023/08/23 03:36:12;;;;;;;10.97;9.83;;;19.30;99.90;;;;;;5010871;28;20427;-45
2023/08/23 03:38:40;;;;;;;10.73;7.97;;;19.40;99.90;;;;;;5010325;28;20485;-44
2023/08/23 03:41:13;;;;;;;11.37;7.93;;;19.50;99.90;;;;;;5010833;28;20455;-43
2023/08/23 03:43:39;;;;;;;10.70;7.60;;;19.30;99.90;;;;;;5010869;28;20486;-43
2023/08/23 03:46:07;;;;;;;10.27;8.20;;;19.00;99.90;;;;;;5011086;28;20887;-45
2023/08/23 03:48:33;;;;;;;10.23;7.40;;;19.20;99.90;;;;;;5013974;28;20465;-44
2023/08/23 03:51:00;;;;;;;9.90;8.50;;;19.30;99.90;;;;;;5015425;28;20537;-43
2023/08/23 03:53:27;;;;;;;9.23;7.40;;;19.30;99.90;;;;;;5014379;28;20416;-44
2023/08/23 03:55:56;;;;;;;10.43;9.17;;;19.20;99.90;;;;;;5014207;28;20420;-43
2023/08/23 03:58:22;;;;;;;9.47;8.00;;;19.00;99.90;;;;;;5014434;28;20447;-43
2023/08/23 04:00:50;;;;;;;10.20;7.90;;;19.20;99.90;;;;;;5014168;28;20924;-44
2023/08/23 04:03:16;;;;;;;11.70;8.20;;;19.20;99.90;;;;;;5015674;28;20480;-46
2023/08/23 04:05:43;;;;;;;13.60;8.37;;;19.30;99.90;;;;;;5017815;28;20437;-43
2023/08/23 04:08:10;;;;;;;14.73;9.40;;;19.40;99.90;;;;;;5035120;28;20468;-44
2023/08/23 04:10:37;;;;;;;13.10;8.20;;;19.40;99.90;;;;;;5035178;28;20809;-42
2023/08/23 04:13:05;;;;;;;12.77;8.83;;;19.30;99.90;;;;;;5033555;28;20445;-43
2023/08/23 04:15:31;;;;;;;17.43;9.17;;;19.30;99.90;;;;;;5035237;28;20444;-43
2023/08/23 04:17:58;;;;;;;13.83;9.17;;;19.30;99.90;;;;;;5034955;28;20493;-43
2023/08/23 04:20:25;;;;;;;13.03;8.90;;;19.30;99.90;;;;;;5035419;28;20918;-43
2023/08/23 04:22:51;;;;;;;15.93;9.50;;;19.30;99.90;;;;;;5036926;28;20880;-43
2023/08/23 04:25:20;;;;;;;11.70;8.63;;;19.30;99.90;;;;;;5038050;28;20777;-43
2023/08/23 04:27:46;;;;;;;13.77;9.03;;;19.40;99.90;;;;;;5035944;28;20839;-44
2023/08/23 04:30:14;;;;;;;13.47;8.80;;;19.40;99.90;;;;;;5035093;28;20433;-42
2023/08/23 04:32:41;;;;;;;12.07;9.10;;;19.40;99.90;;;;;;5033751;28;20452;-43
2023/08/23 04:35:09;;;;;;;13.33;7.80;;;19.30;99.90;;;;;;5033529;28;20441;-45
2023/08/23 04:37:35;;;;;;;10.47;7.93;;;19.40;99.90;;;;;;5033572;28;20550;-45
2023/08/23 04:40:04;;;;;;;12.80;8.47;;;19.50;99.90;;;;;;5034633;28;20714;-43
2023/08/23 04:42:32;;;;;;;15.17;9.13;;;19.50;99.90;;;;;;5033637;28;20452;-46
2023/08/23 04:45:00;;;;;;;11.60;8.97;;;19.50;99.90;;;;;;5035519;28;20527;-43
2023/08/23 04:47:28;;;;;;;8.83;7.70;;;19.60;99.90;;;;;;5032956;28;20472;-43
2023/08/23 04:49:55;;;;;;;13.53;8.50;;;19.60;99.90;;;;;;5033092;28;20456;-42
2023/08/23 04:52:22;;;;;;;8.40;7.50;;;19.60;99.90;;;;;;5034269;28;20470;-45
2023/08/23 04:54:49;;;;;;;11.40;8.23;;;19.70;99.90;;;;;;5032997;28;20447;-44
2023/08/23 04:57:16;;;;;;;14.70;8.50;;;19.40;99.90;;;;;;5032406;28;20478;-44
2023/08/23 04:59:43;;;;;;;14.03;8.93;;;19.70;99.90;;;;;;5033936;28;20433;-44
2023/08/23 05:02:09;;;;;;;10.30;8.30;;;19.80;99.90;;;;;;5032626;28;20513;-44
2023/08/23 05:04:38;;;;;;;15.27;9.50;;;19.80;99.90;;;;;;5032564;28;20480;-43
2023/08/23 05:07:05;;;;;;;13.97;9.17;;;19.90;99.90;;;;;;5032133;28;20845;-44
2023/08/23 05:09:32;;;;;;;11.53;8.90;;;19.70;99.90;;;;;;5032446;28;20447;-44
2023/08/23 05:11:59;;;;;;;14.13;9.70;;;20.20;99.90;;;;;;5032818;28;20449;-43
2023/08/23 05:14:26;;;;;;;13.07;9.43;;;19.90;99.90;;;;;;5032832;28;20979;-44
2023/08/23 05:16:53;;;;;;;9.77;8.87;;;20.00;99.90;;;;;;5032271;28;20446;-44
2023/08/23 05:19:19;;;;;;;11.73;8.67;;;20.00;99.90;;;;;;5032850;28;20438;-44
2023/08/23 05:21:48;;;;;;;12.53;9.47;;;20.10;99.90;;;;;;5034589;28;20429;-44
2023/08/23 05:24:14;;;;;;;15.07;9.90;;;20.20;99.90;;;;;;5033965;28;21046;-43
2023/08/23 05:26:41;;;;;;;10.10;9.10;;;20.20;99.90;;;;;;5033870;28;20465;-44
2023/08/23 05:29:08;;;;;;;11.73;8.30;;;20.30;99.90;;;;;;5034947;28;20439;-44
2023/08/23 05:31:36;;;;;;;7.63;6.83;;;20.60;99.90;;;;;;5033703;28;20537;-44
2023/08/23 05:34:02;;;;;;;11.30;8.10;;;20.50;99.90;;;;;;5033775;28;20455;-44
2023/08/23 05:36:29;;;;;;;9.03;7.20;;;;;;;;;;5035233;28;20534;-43
2023/08/23 05:38:57;;;;;;;11.30;7.30;;;20.60;99.90;;;;;;5033300;28;20466;-42
2023/08/23 05:41:24;;;;;;;8.50;7.60;;;20.70;99.90;;;;;;5032835;28;20490;-43
2023/08/23 05:43:51;;;;;;;10.60;7.03;;;20.70;99.90;;;;;;5033033;28;20440;-45
2023/08/23 05:46:17;;;;;;;9.07;6.50;;;20.80;99.90;;;;;;5033836;28;20450;-44
2023/08/23 05:48:44;;;;;;;7.57;6.77;;;20.80;99.90;;;;;;5037961;28;20465;-43
2023/08/23 05:51:11;;;;;;;8.53;6.93;;;21.00;99.90;;;;;;5038047;28;20923;-43
2023/08/23 05:53:37;;;;;;;7.30;6.00;;;21.10;99.90;;;;;;5038560;28;20449;-44
2023/08/23 05:56:06;;;;;;;10.03;7.40;;;21.20;99.90;;;;;;5040651;28;20439;-44
2023/08/23 05:58:33;;;;;;;11.13;6.57;;;21.50;99.90;;;;;;5034755;28;20521;-43
2023/08/23 06:00:59;;;;;;;11.77;7.47;;;21.40;99.90;;;;;;5035644;28;20441;-45
2023/08/23 06:03:26;;;;;;;11.20;7.67;;;21.50;99.90;;;;;;5034973;28;20502;-44
2023/08/23 06:05:55;;;;;;;8.93;6.07;;;21.50;99.90;;;;;;5035069;28;20450;-43
2023/08/23 06:08:22;;;;;;;13.23;6.20;;;21.60;99.90;;;;;;5035378;28;20898;-45
2023/08/23 06:10:48;;;;;;;9.73;6.63;;;21.60;99.90;;;;;;5036965;28;20441;-45
2023/08/23 06:13:16;;;;;;;9.90;6.47;;;21.70;99.90;;;;;;5036643;28;20451;-42
2023/08/23 06:15:43;;;;;;;11.93;7.10;;;21.50;99.90;;;;;;5036062;28;20445;-44
2023/08/23 06:18:09;;;;;;;15.63;8.50;;;21.90;99.90;;;;;;5035696;28;20464;-43
2023/08/23 06:20:36;;;;;;;14.87;7.60;;;21.90;99.90;;;;;;5036517;28;20431;-43
2023/08/23 06:23:03;;;;;;;7.10;5.93;;;22.00;99.90;;;;;;5038597;28;20466;-45
2023/08/23 06:25:29;;;;;;;9.70;6.43;;;22.10;99.90;;;;;;5037502;28;20432;-44
2023/08/23 06:27:56;;;;;;;9.87;6.77;;;22.10;99.90;;;;;;5036917;28;20473;-42
2023/08/23 06:30:24;;;;;;;14.23;7.20;;;22.20;99.90;;;;;;5036311;28;20538;-44
2023/08/23 06:32:50;;;;;;;11.80;6.60;;;22.20;99.90;;;;;;5036074;28;20916;-43
2023/08/23 06:35:18;;;;;;;14.27;6.70;;;22.30;99.90;;;;;;5036693;28;20429;-43
2023/08/23 06:37:45;;;;;;;9.50;6.40;;;22.30;99.90;;;;;;5035919;28;20892;-43
2023/08/23 06:40:12;;;;;;;12.80;7.50;;;22.40;99.90;;;;;;5035913;28;20803;-45
2023/08/23 06:42:39;;;;;;;14.40;8.53;;;22.40;99.90;;;;;;5035189;28;20432;-44
2023/08/23 06:45:08;;;;;;;9.70;7.17;;;22.40;99.90;;;;;;5034184;28;20480;-43
2023/08/23 06:47:37;;;;;;;8.37;7.50;;;22.50;99.90;;;;;;5034563;28;20465;-43
2023/08/23 06:50:03;;;;;;;18.63;6.47;;;22.50;99.90;;;;;;5034643;28;20457;-43
2023/08/23 06:52:30;;;;;;;8.87;5.97;;;22.60;99.90;;;;;;5034862;28;20432;-43
2023/08/23 06:54:57;;;;;;;12.30;5.30;;;22.60;99.90;;;;;;5034002;28;20922;-43
2023/08/23 06:57:28;;;;;;;6.60;5.53;;;22.60;99.90;;;;;;5032850;28;20973;-43
2023/08/23 06:59:56;;;;;;;8.00;5.97;;;22.60;99.90;;;;;;5034370;28;20443;-45
2023/08/23 07:02:22;;;;;;;11.03;5.87;;;22.70;99.90;;;;;;5033567;28;20941;-42
2023/08/23 07:04:52;;;;;;;8.50;5.40;;;22.80;99.90;;;;;;5032528;28;20473;-44
2023/08/23 07:07:19;;;;;;;11.13;6.00;;;22.70;99.90;;;;;;5031588;28;20469;-43
2023/08/23 07:09:45;;;;;;;8.70;4.73;;;22.70;99.90;;;;;;5032583;28;20489;-43
2023/08/23 07:12:12;;;;;;;7.93;5.43;;;23.10;99.90;;;;;;5033073;28;20797;-43
2023/08/23 07:14:38;;;;;;;9.10;5.10;;;22.90;99.90;;;;;;5032932;28;20448;-43
2023/08/23 07:17:05;;;;;;;5.50;4.37;;;22.90;99.90;;;;;;5032044;28;20501;-44
2023/08/23 07:19:31;;;;;;;31.37;6.77;;;22.90;99.90;;;;;;5032321;28;20791;-43
2023/08/23 07:22:00;;;;;;;13.97;5.93;;;23.00;99.90;;;;;;5033485;28;20432;-44
2023/08/23 07:24:26;;;;;;;10.40;6.67;;;23.00;99.90;;;;;;5036216;28;20947;-44
2023/08/23 07:26:55;;;;;;;10.30;4.97;;;23.10;99.90;;;;;;5035330;28;20453;-43
2023/08/23 07:29:21;;;;;;;12.27;4.73;;;23.10;99.80;;;;;;5036558;28;20473;-45
2023/08/23 07:31:48;;;;;;;9.57;4.60;;;22.90;99.30;;;;;;5035927;28;20429;-44
2023/08/23 07:34:15;;;;;;;13.63;5.33;;;23.20;99.40;;;;;;5036168;28;20439;-42
2023/08/23 07:36:41;;;;;;;8.80;4.77;;;23.20;99.30;;;;;;5035995;28;21010;-44
2023/08/23 07:39:09;;;;;;;8.20;4.70;;;23.30;99.30;;;;;;5035794;28;20460;-44
2023/08/23 07:41:36;;;;;;;11.73;4.47;;;23.40;99.20;;;;;;5036232;28;20799;-45
2023/08/23 07:44:02;;;;;;;9.80;6.40;;;23.40;99.00;;;;;;5035521;28;20504;-44
2023/08/23 07:46:29;;;;;;;8.93;4.53;;;23.50;98.50;;;;;;5035479;28;20429;-43
2023/08/23 07:48:55;;;;;;;6.37;5.20;;;23.40;98.80;;;;;;5035825;28;20448;-44
2023/08/23 07:51:22;;;;;;;9.00;4.43;;;23.20;98.60;;;;;;5035797;28;20980;-44
2023/08/23 07:53:49;;;;;;;8.67;4.00;;;23.60;98.40;;;;;;5035436;28;20505;-44
2023/08/23 07:56:17;;;;;;;5.43;3.13;;;23.60;98.20;;;;;;5035778;28;20546;-42
2023/08/23 07:58:44;;;;;;;6.47;3.20;;;23.70;98.10;;;;;;5035612;28;20490;-43
2023/08/23 08:01:10;;;;;;;7.53;3.27;;;23.60;97.70;;;;;;5036072;28;20457;-43
2023/08/23 08:03:39;;;;;;;5.47;3.60;;;23.80;97.20;;;;;;5038390;28;20446;-43
2023/08/23 08:06:06;;;;;;;7.60;3.07;;;23.80;96.80;;;;;;5039815;28;20450;-43
2023/08/23 08:08:33;;;;;;;4.00;3.57;;;23.80;96.50;;;;;;5041211;28;20462;-44
2023/08/23 08:11:00;;;;;;;7.67;4.00;;;23.90;96.80;;;;;;5040836;28;20447;-44
2023/08/23 08:13:27;;;;;;;9.93;3.13;;;23.90;96.30;;;;;;5040568;28;20496;-43
2023/08/23 08:15:54;;;;;;;5.53;2.93;;;24.00;96.20;;;;;;5041119;28;20446;-43
2023/08/23 08:18:21;;;;;;;4.70;3.20;;;23.90;96.00;;;;;;5039509;28;20491;-43
2023/08/23 08:20:48;;;;;;;4.90;3.00;;;23.90;95.80;;;;;;5038868;28;20445;-44
2023/08/23 08:23:15;;;;;;;5.40;3.33;;;24.10;95.70;;;;;;5038279;28;20449;-46
2023/08/23 08:25:42;;;;;;;7.10;3.20;;;24.10;95.80;;;;;;5040411;28;20482;-42
2023/08/23 08:28:08;;;;;;;9.77;3.37;;;24.20;95.80;;;;;;5040532;28;20455;-43
2023/08/23 08:30:36;;;;;;;4.53;3.00;;;24.20;95.90;;;;;;5036979;28;20439;-44
2023/08/23 08:33:03;;;;;;;4.20;2.50;;;24.10;95.60;;;;;;5034746;28;20446;-45
2023/08/23 08:35:30;;;;;;;7.33;3.33;;;24.30;95.60;;;;;;5034991;28;20443;-42
2023/08/23 08:37:56;;;;;;;8.20;4.03;;;24.30;95.60;;;;;;5034459;28;20455;-44
2023/08/23 08:40:23;;;;;;;4.60;3.60;;;24.30;95.70;;;;;;5034502;28;20442;-44
2023/08/23 08:42:50;;;;;;;4.30;3.53;;;24.10;95.70;;;;;;5034416;28;20435;-44
2023/08/23 08:45:17;;;;;;;6.13;3.63;;;24.20;95.80;;;;;;5034512;28;20476;-43
2023/08/23 08:47:46;;;;;;;7.60;4.07;;;24.50;96.20;;;;;;5034721;28;20467;-45
2023/08/23 08:50:14;;;;;;;7.20;4.50;;;24.50;96.30;;;;;;5034798;28;20449;-44
2023/08/23 08:52:42;;;;;;;5.43;4.80;;;24.50;96.40;;;;;;5035314;28;20440;-44
2023/08/23 08:55:12;;;;;;;10.00;4.37;;;24.50;96.50;;;;;;5034574;28;20473;-44
2023/08/23 08:57:39;;;;;;;9.67;4.73;;;24.60;96.60;;;;;;5033810;28;21032;-43
2023/08/23 09:00:08;;;;;;;12.87;4.70;;;24.60;96.60;;;;;;5034503;28;20442;-45
2023/08/23 09:02:35;;;;;;;15.67;13.87;;;24.60;96.60;;;;;;5035209;28;20471;-44
2023/08/23 09:05:04;;;;;;;8.27;5.03;;;24.70;96.50;;;;;;5034780;28;20493;-43
2023/08/23 09:07:31;;;;;;;7.30;4.40;;;24.70;96.40;;;;;;5034074;28;20851;-44
2023/08/23 09:09:58;;;;;;;10.70;3.63;;;24.70;96.40;;;;;;5034478;28;20447;-44
2023/08/23 09:12:25;;;;;;;8.70;3.93;;;24.80;96.40;;;;;;5034727;28;20974;-43
2023/08/23 09:14:52;;;;;;;7.30;3.90;;;24.60;96.30;;;;;;5034507;28;20494;-44
2023/08/23 09:17:22;;;;;;;9.37;4.03;;;24.70;96.30;;;;;;5054725;22;20488;-50
2023/08/23 09:19:49;;;;;;;6.67;4.23;;;25.00;96.40;;;;;;5013102;28;20438;-51
2023/08/23 09:22:21;;;;;;;5.00;3.40;;;25.20;96.20;;;;;;5012741;28;20447;-51
2023/08/23 09:24:48;;;;;;;7.40;4.00;;;25.20;95.60;;;;;;5012238;28;20589;-50
2023/08/23 09:27:15;;;;;;;9.70;4.10;;;25.50;95.60;;;;;;5011920;28;20881;-51
2023/08/23 09:29:43;;;;;;;7.73;3.10;;;25.60;95.30;;;;;;5012607;28;20449;-51
2023/08/23 09:32:10;;;;;;;7.57;3.50;;;25.60;94.90;;;;;;5012294;28;20436;-51
2023/08/23 09:34:36;;;;;;;4.93;3.87;;;25.50;94.50;;;;;;5012168;28;20808;-50
2023/08/23 09:37:07;;;;;;;5.97;3.50;;;25.70;93.80;;;;;;5010533;28;20451;-51
2023/08/23 09:39:35;;;;;;;4.93;2.63;;;25.80;94.10;;;;;;5012206;28;20514;-50
2023/08/23 09:42:05;;;;;;;10.50;3.50;;;25.80;93.90;;;;;;5012747;28;20959;-50
2023/08/23 09:44:40;;;;;;;8.40;3.60;;;25.90;93.70;;;;;;5011816;28;20479;-51
2023/08/23 09:47:10;;;;;;;6.13;3.60;;;26.00;93.30;;;;;;5012125;28;20429;-52
2023/08/23 09:49:39;;;;;;;8.67;3.67;;;26.10;93.60;;;;;;5012751;28;20437;-51
2023/08/23 09:52:07;;;;;;;5.13;4.60;;;26.20;93.20;;;;;;5012243;28;20802;-50
2023/08/23 09:54:45;;;;;;;5.17;3.23;;;26.20;93.10;;;;;;5011649;28;20571;-50
2023/08/23 09:57:12;;;;;;;5.00;3.17;;;26.30;92.80;;;;;;5010113;28;20536;-50
2023/08/23 09:59:39;;;;;;;6.50;3.47;;;26.40;92.90;;;;;;5012244;28;20419;-50
2023/08/23 10:02:10;;;;;;;8.63;3.47;;;26.40;92.70;;;;;;5012170;28;20433;-50
2023/08/23 10:04:40;;;;;;;5.73;3.00;;;26.60;92.10;;;;;;5012122;28;20570;-49
2023/08/23 10:07:07;;;;;;;10.17;4.30;;;26.50;91.00;;;;;;5024413;28;20427;-50
2023/08/23 10:09:35;;;;;;;7.57;3.00;;;26.60;91.50;;;;;;5031221;28;20900;-51
2023/08/23 10:12:04;;;;;;;4.80;2.87;;;26.60;91.60;;;;;;5031410;28;20487;-50
2023/08/23 10:14:32;;;;;;;8.00;3.10;;;26.60;91.30;;;;;;5031160;28;20449;-49
2023/08/23 10:17:00;;;;;;;4.60;2.90;;;26.50;90.30;;;;;;5030465;28;20434;-50
2023/08/23 10:19:27;;;;;;;4.60;3.03;;;26.60;90.70;;;;;;5031164;28;20451;-50
2023/08/23 10:21:54;;;;;;;5.33;2.80;;;26.50;90.80;;;;;;5031011;28;20771;-51
2023/08/23 10:24:24;;;;;;;6.10;2.50;;;26.40;90.90;;;;;;5031330;28;20439;-51
2023/08/23 10:26:52;;;;;;;6.37;3.37;;;26.40;90.30;;;;;;5030806;28;20428;-51
2023/08/23 10:29:27;;;;;;;6.13;2.43;;;26.40;90.60;;;;;;5031041;28;20447;-51
2023/08/23 10:31:54;;;;;;;4.60;2.97;;;26.60;90.50;;;;;;5031337;28;20429;-51
2023/08/23 10:34:24;;;;;;;4.13;2.20;;;26.50;90.30;;;;;;5031063;28;20436;-51
2023/08/23 10:36:52;;;;;;;5.83;2.67;;;26.40;88.60;;;;;;5030889;28;20971;-51
2023/08/23 10:39:22;;;;;;;3.83;1.60;;;26.50;89.10;;;;;;5031350;28;20470;-51
2023/08/23 10:41:51;;;;;;;4.63;2.37;;;26.40;87.20;;;;;;5030775;28;20432;-50
2023/08/23 10:44:18;;;;;;;5.03;2.60;;;26.40;87.20;;;;;;5030888;28;20435;-51
2023/08/23 10:46:46;;;;;;;8.73;7.10;;;26.40;87.40;;;;;;5030382;28;20488;-50
2023/08/23 10:49:14;;;;;;;11.20;2.60;;;26.40;88.00;;;;;;5030537;28;20453;-51
2023/08/23 10:51:42;;;;;;;5.50;2.27;;;26.40;87.90;;;;;;5030826;28;20443;-50
2023/08/23 10:54:11;;;;;;;2.93;1.90;;;26.40;87.50;;;;;;5031296;28;20516;-51
2023/08/23 10:56:38;;;;;;;3.97;1.60;;;26.40;87.20;;;;;;5033267;28;20440;-51
2023/08/23 10:59:06;;;;;;;6.50;2.30;;;26.40;87.20;;;;;;5035052;28;20451;-50
2023/08/23 11:01:33;;;;;;;6.87;2.90;;;26.30;86.90;;;;;;5034815;28;20530;-49
2023/08/23 11:04:03;;;;;;;5.13;2.33;;;26.30;86.00;;;;;;5035505;28;20434;-50
2023/08/23 11:06:29;;;;;;;4.10;2.10;;;26.00;85.90;;;;;;5034491;28;20479;-50
2023/08/23 11:08:57;;;;;;;2.83;2.00;;;26.20;86.20;;;;;;5034383;28;20479;-51
2023/08/23 11:11:28;;;;;;;4.60;2.30;;;26.20;86.20;;;;;;5034964;28;20502;-51
2023/08/23 11:13:55;;;;;;;7.77;2.63;;;25.90;85.60;;;;;;5035013;28;20434;-51
2023/08/23 11:16:22;;;;;;;3.70;1.50;;;26.20;85.80;;;;;;5034894;28;20444;-51
2023/08/23 11:18:49;;;;;;;3.50;1.90;;;26.30;85.00;;;;;;5034333;28;20878;-51
2023/08/23 11:21:18;;;;;;;5.40;2.27;;;26.30;84.80;;;;;;5035253;28;20440;-51
2023/08/23 11:23:45;;;;;;;4.93;1.63;;;26.30;84.90;;;;;;5034768;28;20985;-50
2023/08/23 11:26:12;;;;;;;3.67;1.63;;;26.30;84.50;;;;;;5034957;28;20493;-50
2023/08/23 11:28:38;;;;;;;4.83;2.50;;;26.40;83.60;;;;;;5034103;28;20467;-50
2023/08/23 11:31:06;;;;;;;5.57;2.10;;;26.40;83.50;;;;;;5014555;28;20452;-51
2023/08/23 11:33:33;;;;;;;3.23;1.83;;;26.60;83.70;;;;;;5014747;28;20429;-51
2023/08/23 11:35:59;;;;;;;4.70;2.77;;;26.70;83.00;;;;;;5014455;28;20432;-50
2023/08/23 11:38:29;;;;;;;1.93;1.53;;;26.70;82.50;;;;;;5014209;28;20987;-51
2023/08/23 11:40:55;;;;;;;4.43;2.10;;;26.70;82.80;;;;;;5014918;28;20482;-49
2023/08/23 11:43:24;;;;;;;6.77;2.70;;;26.70;83.40;;;;;;5014815;28;20770;-50
2023/08/23 11:45:52;;;;;;;3.57;2.07;;;26.70;84.00;;;;;;5014982;28;20493;-49
2023/08/23 11:48:19;;;;;;;3.90;1.40;;;26.70;84.10;;;;;;5014384;28;21019;-50
2023/08/23 11:50:45;;;;;;;2.20;1.60;;;26.70;82.60;;;;;;5015025;28;20866;-51
2023/08/23 11:53:12;;;;;;;3.47;2.07;;;26.60;81.20;;;;;;5014951;28;20443;-50
2023/08/23 11:55:41;;;;;;;4.20;2.20;;;26.50;81.30;;;;;;5014722;28;20539;-50
2023/08/23 11:58:09;;;;;;;4.13;2.03;;;26.50;82.00;;;;;;5014046;28;20543;-51
2023/08/23 12:00:36;;;;;;;4.60;1.73;;;26.60;82.20;;;;;;5014495;28;20448;-51
2023/08/23 12:03:04;;;;;;;5.83;1.67;;;26.60;81.90;;;;;;5014412;28;20444;-51
2023/08/23 12:05:30;;;;;;;24.20;20.70;;;26.70;81.50;;;;;;5014534;28;20537;-51
2023/08/23 12:07:57;;;;;;;6.23;2.40;;;26.70;80.00;;;;;;5033084;28;20467;-50
2023/08/23 12:10:23;;;;;;;5.03;2.50;;;26.70;79.70;;;;;;5034117;28;20432;-53
2023/08/23 12:12:51;;;;;;;3.77;2.00;;;26.90;79.60;;;;;;5034326;28;20430;-50
2023/08/23 12:15:18;;;;;;;2.60;1.80;;;26.90;78.40;;;;;;5033854;28;20501;-50
2023/08/23 12:17:45;;;;;;;2.83;1.70;;;26.90;78.40;;;;;;5033550;28;20502;-51
2023/08/23 12:20:12;;;;;;;3.17;2.10;;;26.90;78.60;;;;;;5034074;28;20439;-51
2023/08/23 12:22:45;;;;;;;3.13;1.63;;;27.00;78.90;;;;;;5032976;28;20440;-51
2023/08/23 12:25:11;;;;;;;6.30;1.70;;;27.10;78.20;;;;;;5034142;28;20446;-50
2023/08/23 12:27:38;;;;;;;3.93;1.70;;;27.00;77.60;;;;;;5033049;28;20462;-51
2023/08/23 12:30:09;;;;;;;3.07;1.60;;;27.10;76.80;;;;;;5033932;28;20447;-51
2023/08/23 12:32:35;;;;;;;4.90;2.03;;;27.20;75.70;;;;;;5033491;28;20424;-50
2023/08/23 12:35:03;;;;;;;2.37;1.40;;;27.20;74.30;;;;;;5033645;28;20794;-50
2023/08/23 12:37:30;;;;;;;4.13;1.40;;;27.30;73.10;;;;;;5033275;28;20459;-50
2023/08/23 12:39:57;;;;;;;3.63;1.77;;;27.30;71.00;;;;;;5033062;28;20553;-50
2023/08/23 12:42:23;;;;;;;11.50;2.57;;;27.10;70.90;;;;;;5033412;28;20436;-49
2023/08/23 12:44:50;;;;;;;5.77;2.13;;;27.30;71.80;;;;;;5033697;28;20776;-51